Latest Weather Observations for Sydney Airport

IDN60801

Issued at 9:53 pm EST Tuesday 24 May 2022 (issued every 10 minutes, with the page automatically refreshed every 10 minutes)

About weather observations | Map of weather stations | Latest weather observations for NSW | Other Formats
Station Details ID: 066037 Name: SYDNEY AIRPORT AMO Lat: -33.95 Lon: 151.17 Height: 6.0 m
Data from the previous 72 hours. | See also: Recent months at Sydney Airport
Date/Time
EST
Temp
°C
App
Temp
°C
Dew
Point
°C
Rel
Hum
%
Delta-T
°C
Wind Press
QNH
hPa
Press
MSL
hPa
Rain since
9am
mm
Dir  Spd
km/h
Gust
km/h
Spd
kts
Gust
kts
24/09:30pm 14.5 13.8 13.2 92 0.7 WNW 9 15 5 8 1027.1 1027.1 2.2
24/09:00pm 14.5 14.2 13.2 92 0.7 W 7 11 4 6 1027.3 1027.3 2.0
24/08:30pm 14.9 13.9 13.3 90 0.9 WNW 11 15 6 8 1027.2 1027.2 1.8
24/08:00pm 14.3 12.8 13.0 92 0.7 WSW 13 15 7 8 1027.0 1027.0 1.8
24/07:30pm 14.7 14.1 13.4 92 0.7 SSW 9 11 5 6 1026.9 1026.9 1.8
24/07:00pm 14.8 15.0 13.2 90 0.9 E 4 7 2 4 1026.7 1026.7 1.8
24/06:30pm 15.2 13.6 12.9 86 1.3 E 13 20 7 11 1026.5 1026.5 1.8
24/06:00pm 16.1 15.6 12.7 80 1.9 NE 7 9 4 5 1026.2 1026.2 1.8
24/05:30pm 15.7 14.8 12.6 82 1.7 NNE 9 11 5 6 1026.1 1026.1 1.8
24/05:00pm 16.4 15.6 12.8 79 2.0 NE 9 9 5 5 1026.0 1026.0 1.8
24/04:30pm 17.1 16.5 12.2 73 2.7 NNE 7 9 4 5 1026.0 1026.0 1.8
24/04:00pm 17.5 16.4 12.0 70 3.0 NNE 9 11 5 6 1025.9 1025.9 1.8
24/03:30pm 17.7 16.9 13.0 74 2.6 NNE 9 13 5 7 1026.0 1026.0 1.8
24/03:00pm 17.6 16.2 13.5 77 2.3 NNE 13 15 7 8 1026.1 1026.1 1.8
24/02:30pm 17.0 16.2 13.9 82 1.8 NNE 11 13 6 7 1026.1 1026.1 1.8
24/02:00pm 16.5 15.7 12.8 79 2.0 N 9 11 5 6 1026.2 1026.2 1.8
24/01:30pm 16.0 15.5 12.7 81 1.8 N 7 9 4 5 1026.4 1026.4 1.8
24/01:00pm 15.7 14.8 13.7 88 1.1 NE 11 15 6 8 1026.8 1026.8 1.8
24/12:30pm 15.5 13.4 13.7 89 1.0 SW 17 24 9 13 1027.0 1027.0 1.8
24/12:00pm 15.2 11.7 13.4 89 1.0 SSW 24 35 13 19 1027.4 1027.4 1.2
24/11:30am 16.5 14.0 13.4 82 1.7 SW 19 26 10 14 1027.6 1027.6 0.0
24/11:00am 16.3 16.0 14.3 88 1.1 W 9 20 5 11 1028.0 1028.0 0.0
24/10:30am 16.2 15.4 14.0 87 1.2 WNW 11 19 6 10 1028.3 1028.3 0.0
24/10:00am 15.9 15.4 13.7 87 1.2 NW 9 13 5 7 1028.4 1028.4 0.0
24/09:30am 15.5 15.0 13.9 90 0.9 WNW 9 11 5 6 1028.4 1028.4 0.0
24/09:00am 14.8 13.3 13.2 90 0.9 NW 13 17 7 9 1028.5 1028.5 59.0
24/08:30am 14.5 13.0 13.2 92 0.7 NW 13 15 7 8 1028.4 1028.4 59.0
24/08:00am 14.1 13.0 13.0 93 0.6 NNW 11 15 6 8 1028.3 1028.3 59.0
24/07:30am 13.7 12.1 12.8 94 0.5 NW 13 17 7 9 1028.0 1028.0 59.0
24/07:00am 13.5 11.9 12.7 95 0.4 NW 13 15 7 8 1027.9 1027.9 59.0
24/06:30am 13.7 11.8 12.9 95 0.4 NW 15 17 8 9 1027.7 1027.7 59.0
24/06:00am 14.2 13.6 13.6 96 0.3 NW 9 11 5 6 1027.5 1027.5 59.0
24/05:30am 13.4 12.6 12.8 96 0.3 WNW 9 13 5 7 1027.3 1027.3 58.8
24/05:00am 13.6 12.5 13.1 97 0.3 WNW 11 15 6 8 1027.4 1027.4 58.8
24/04:30am 13.4 11.4 12.8 96 0.3 W 15 20 8 11 1027.4 1027.4 58.6
24/04:00am 13.4 12.5 12.6 95 0.4 WNW 9 13 5 7 1027.1 1027.1 56.8
24/03:30am 13.9 13.5 13.0 94 0.5 N 7 11 4 6 1027.6 1027.6 55.0
24/03:11am 14.0 12.9 13.2 95 0.4 N 11 15 6 8 1027.8 1027.8 54.2
24/03:00am 14.0 12.5 13.1 94 0.5 N 13 17 7 9 1027.9 1027.9 53.8
24/02:58am 13.9 12.0 13.0 94 0.5 N 15 20 8 11 1028.0 1028.0 53.6
24/02:30am 14.2 12.2 12.8 91 0.8 SE 15 19 8 10 1027.9 1027.9 52.0
24/02:01am 15.1 13.0 13.5 90 0.9 S 17 28 9 15 1027.7 1027.7 49.8
24/02:00am 15.0 12.8 13.4 90 0.9 S 17 28 9 15 1027.7 1027.7 49.8
24/01:46am 14.6 11.8 13.1 91 0.8 WSW 20 46 11 25 1027.9 1027.9 49.6
24/01:30am 14.3 12.5 13.2 93 0.6 S 15 19 8 10 1027.8 1027.8 45.0
24/01:00am 14.1 12.7 13.3 95 0.4 SSW 13 19 7 10 1027.9 1027.9 44.8
24/12:49am 13.6 12.0 12.8 95 0.4 N 13 20 7 11 1028.0 1028.0 43.4
24/12:35am 13.3 12.7 12.2 93 0.6 NW 7 13 4 7 1027.9 1027.9 35.2
24/12:30am 13.8 12.6 12.9 94 0.5 WNW 11 13 6 7 1027.7 1027.7 33.4
24/12:00am 13.3 11.9 12.2 93 0.6 W 11 13 6 7 1028.1 1028.1 33.4
 
Date/Time
EST
Temp
°C
App
Temp
°C
Dew
Point
°C
Rel
Hum
%
Delta-T
°C
Wind Press
QNH
hPa
Press
MSL
hPa
Rain since
9am
mm
Dir  Spd
km/h
Gust
km/h
Spd
kts
Gust
kts
23/11:30pm 13.6 11.9 12.5 93 0.6 WNW 13 13 7 7 1028.1 1028.1 33.4
23/11:00pm 14.1 13.2 12.7 91 0.8 WNW 9 13 5 7 1028.4 1028.4 33.4
23/10:30pm 14.7 14.2 12.6 87 1.1 SSW 7 9 4 5 1028.4 1028.4 33.4
23/10:00pm 14.9 13.2 12.6 86 1.3 SSE 13 19 7 10 1028.5 1028.5 33.4
23/09:30pm 16.4 14.7 12.6 78 2.1 SE 13 19 7 10 1028.6 1028.6 33.4
23/09:00pm 15.8 14.1 13.6 87 1.2 SSE 15 20 8 11 1028.6 1028.6 33.4
23/08:30pm 15.5 12.8 12.8 84 1.5 SSE 19 26 10 14 1028.6 1028.6 33.4
23/08:00pm 15.6 13.2 13.8 89 1.0 SSE 19 24 10 13 1028.6 1028.6 33.4
23/07:30pm 14.7 12.6 13.7 94 0.6 S 17 20 9 11 1028.6 1028.6 33.4
23/07:00pm 14.7 13.4 13.6 93 0.6 SSW 13 17 7 9 1028.5 1028.5 33.4
23/06:30pm 14.7 13.7 13.4 92 0.7 S 11 13 6 7 1028.4 1028.4 33.4
23/06:00pm 14.8 13.0 13.3 91 0.8 S 15 17 8 9 1028.5 1028.5 33.4
23/05:30pm 14.8 12.6 13.3 91 0.8 S 17 20 9 11 1028.4 1028.4 33.4
23/05:00pm 15.0 13.2 13.2 89 1.0 S 15 19 8 10 1028.2 1028.2 33.2
23/04:30pm 14.7 13.8 12.6 87 1.1 SSE 9 11 5 6 1028.1 1028.1 33.2
23/04:00pm 14.9 14.5 12.9 88 1.1 SSE 7 9 4 5 1028.1 1028.1 33.2
23/03:30pm 15.4 14.9 13.9 91 0.8 ENE 9 13 5 7 1027.9 1027.9 32.8
23/03:00pm 15.2 12.6 13.2 88 1.1 ENE 19 26 10 14 1027.9 1027.9 32.4
23/02:30pm 15.4 11.8 12.9 85 1.4 E 24 32 13 17 1027.8 1027.8 31.6
23/02:00pm 15.9 13.3 13.2 84 1.5 E 19 24 10 13 1027.8 1027.8 31.2
23/01:30pm 15.8 13.2 13.1 84 1.5 E 19 26 10 14 1027.9 1027.9 31.0
23/01:00pm 15.9 13.2 13.6 86 1.3 E 20 26 11 14 1027.7 1027.7 30.8
23/12:30pm 16.4 15.3 14.4 88 1.1 ENE 13 15 7 8 1028.0 1028.0 30.8
23/12:00pm 15.0 13.8 14.0 94 0.6 SSW 13 19 7 10 1028.3 1028.3 30.8
23/11:30am 14.0 12.9 13.1 94 0.5 S 11 17 6 9 1028.9 1028.9 30.8
23/11:25am 14.2 12.7 13.2 94 0.6 SW 13 17 7 9 1028.8 1028.8 30.8
23/11:00am 14.3 11.6 13.0 92 0.7 WSW 19 26 10 14 1029.1 1029.1 27.6
23/10:51am 14.5 11.0 13.5 94 0.6 W 24 32 13 17 1029.0 1029.0 27.6
23/10:38am 14.4 11.9 13.6 95 0.4 WSW 19 26 10 14 1029.3 1029.3 26.4
23/10:30am 14.4 12.3 13.6 95 0.4 SW 17 24 9 13 1029.3 1029.3 25.6
23/10:20am 14.2 12.4 13.4 95 0.4 SW 15 22 8 12 1029.4 1029.4 22.0
23/10:12am 14.5 12.1 13.7 95 0.4 SSW 19 32 10 17 1029.3 1029.3 19.6
23/10:00am 14.4 13.8 13.4 94 0.6 E 9 22 5 12 1029.3 1029.3 14.4
23/09:39am 14.5 11.5 13.7 95 0.4 WSW 22 28 12 15 1028.8 1028.8 7.6
23/09:32am 14.6 11.6 13.6 94 0.6 SW 22 26 12 14 1029.0 1029.0 3.2
23/09:30am 14.6 11.9 13.6 94 0.6 SW 20 26 11 14 1029.0 1029.0 2.0
23/09:21am 14.6 12.5 13.5 93 0.6 SW 17 24 9 13 1028.9 1028.9 1.2
23/09:00am 14.9 12.7 13.4 91 0.8 SW 17 20 9 11 1028.8 1028.8 8.2
23/08:30am 14.6 10.6 13.1 91 0.8 SW 26 30 14 16 1028.5 1028.5 8.2
23/08:00am 13.5 10.5 12.4 93 0.6 WSW 20 28 11 15 1028.4 1028.4 8.2
23/07:30am 13.6 11.9 12.5 93 0.6 W 13 17 7 9 1028.3 1028.3 8.2
23/07:00am 14.1 12.7 13.3 95 0.4 WSW 13 17 7 9 1028.1 1028.1 8.2
23/06:30am 13.1 11.7 12.3 95 0.4 W 11 17 6 9 1028.0 1028.0 8.2
23/06:00am 13.1 11.0 12.5 96 0.3 W 15 17 8 9 1027.5 1027.5 8.2
23/05:30am 12.9 10.8 12.3 96 0.3 W 15 17 8 9 1027.5 1027.5 8.2
23/05:00am 12.6 10.4 12.0 96 0.3 W 15 19 8 10 1027.4 1027.4 8.2
23/04:30am 12.7 10.1 11.9 95 0.4 WNW 17 19 9 10 1027.4 1027.4 8.0
23/04:00am 13.2 11.5 12.3 94 0.5 NW 13 17 7 9 1027.5 1027.5 7.4
23/03:30am 13.1 10.6 12.3 95 0.4 WNW 17 20 9 11 1027.6 1027.6 6.6
23/03:00am 13.1 10.9 12.2 94 0.5 W 15 26 8 14 1027.6 1027.6 5.4
23/02:30am 12.9 10.7 12.0 94 0.5 N 15 19 8 10 1027.7 1027.7 4.4
23/02:00am 13.1 10.9 12.0 93 0.6 NW 15 19 8 10 1027.6 1027.6 3.2
23/01:53am 13.1 10.9 12.0 93 0.6 NW 15 19 8 10 1027.5 1027.5 3.2
23/01:30am 13.2 10.7 12.3 94 0.5 NW 17 20 9 11 1027.5 1027.5 3.2
23/01:00am 14.1 12.6 13.0 93 0.6 WNW 13 15 7 8 1027.8 1027.8 3.2
23/12:30am 14.7 12.9 13.4 92 0.7 S 15 19 8 10 1027.4 1027.4 3.2
23/12:00am 15.2 13.2 13.9 92 0.7 S 17 20 9 11 1027.4 1027.4 3.2
 
Date/Time
EST
Temp
°C
App
Temp
°C
Dew
Point
°C
Rel
Hum
%
Delta-T
°C
Wind Press
QNH
hPa
Press
MSL
hPa
Rain since
9am
mm
Dir  Spd
km/h
Gust
km/h
Spd
kts
Gust
kts
22/11:30pm 14.4 12.2 13.3 93 0.6 S 17 20 9 11 1027.9 1027.9 3.2
22/11:00pm 14.4 12.9 13.1 92 0.7 SSW 13 17 7 9 1027.9 1027.9 3.2
22/10:30pm 14.3 11.7 13.2 93 0.6 SSW 19 35 10 19 1028.2 1028.2 3.2
22/10:00pm 14.2 11.6 13.2 94 0.5 SSW 19 22 10 12 1028.4 1028.4 2.2
22/09:30pm 14.0 11.1 12.9 93 0.6 SW 20 32 11 17 1028.5 1028.5 1.4
22/09:00pm 14.5 9.4 13.2 92 0.7 SSW 32 39 17 21 1028.8 1028.8 0.6
22/08:30pm 14.8 10.9 13.3 91 0.8 S 26 32 14 17 1028.6 1028.6 0.6
22/08:00pm 14.9 9.9 13.3 90 0.9 SSW 32 39 17 21 1028.2 1028.2 0.4
22/07:30pm 15.2 10.6 13.4 89 1.0 SSW 30 37 16 20 1028.0 1028.0 0.0
22/07:00pm 15.4 11.1 13.1 86 1.3 SSW 28 35 15 19 1027.8 1027.8 0.0
22/06:30pm 15.7 11.2 13.7 88 1.1 SSW 30 37 16 20 1027.7 1027.7 0.0
22/06:00pm 15.7 11.6 12.8 83 1.6 SSW 26 32 14 17 1027.6 1027.6 0.0
22/05:30pm 16.2 13.6 13.1 82 1.7 SSW 19 26 10 14 1027.3 1027.3 0.0
22/05:00pm 16.6 12.6 13.1 80 1.9 SSW 26 43 14 23 1026.9 1026.9 0.0
22/04:30pm 18.1 14.8 11.7 66 3.5 SE 20 26 11 14 1026.8 1026.8 0.0
22/04:00pm 18.4 15.1 10.8 61 4.1 SE 19 22 10 12 1026.5 1026.5 0.0
22/03:30pm 19.0 15.2 11.1 60 4.3 SE 22 28 12 15 1026.5 1026.5 0.0
22/03:00pm 18.8 15.1 11.4 62 4.0 SE 22 28 12 15 1026.6 1026.6 0.0
22/02:30pm 19.1 15.7 11.4 61 4.2 SE 20 28 11 15 1026.5 1026.5 0.0
22/02:00pm 18.3 16.2 14.8 80 2.0 SE 19 28 10 15 1026.4 1026.4 0.0
22/01:30pm 17.9 15.2 14.6 81 1.9 S 22 32 12 17 1026.4 1026.4 0.0
22/01:00pm 18.8 15.4 11.4 62 4.0 SE 20 28 11 15 1026.7 1026.7 0.0
22/12:30pm 18.9 15.1 11.2 61 4.2 SE 22 28 12 15 1027.0 1027.0 0.0
22/12:00pm 18.7 15.1 11.8 64 3.8 SE 22 32 12 17 1027.5 1027.5 0.0
22/11:30am 19.0 14.9 11.3 61 4.2 SE 24 33 13 18 1027.9 1027.9 0.0
22/11:00am 18.8 15.3 12.1 65 3.7 SE 22 30 12 16 1028.2 1028.2 0.0
22/10:30am 18.0 15.5 15.1 83 1.7 S 22 30 12 16 1028.3 1028.3 0.0
22/10:00am 17.0 14.4 14.8 87 1.3 S 22 32 12 17 1028.4 1028.4 0.0
22/09:30am 16.6 13.1 14.6 88 1.1 S 26 35 14 19 1028.5 1028.5 0.0
22/09:00am 16.5 13.1 14.7 89 1.0 S 26 33 14 18 1028.6 1028.6 5.4
22/08:30am 16.3 12.9 14.7 90 0.9 SSW 26 32 14 17 1028.3 1028.3 5.4
22/08:00am 15.2 12.0 13.2 88 1.1 SSE 22 30 12 16 1028.4 1028.4 5.4
22/07:30am 14.2 13.9 13.2 94 0.6 NW 7 13 4 7 1028.2 1028.2 5.4
22/07:00am 14.1 12.2 13.0 93 0.6 NNW 15 19 8 10 1028.0 1028.0 5.4
22/06:30am 14.2 13.9 13.2 94 0.6 NW 7 9 4 5 1028.0 1028.0 5.4
22/06:00am 13.8 12.7 13.0 95 0.4 WSW 11 13 6 7 1027.5 1027.5 5.4
22/05:30am 13.7 12.2 13.1 96 0.3 WNW 13 17 7 9 1027.6 1027.6 5.2
22/05:00am 13.4 11.8 12.8 96 0.3 NW 13 15 7 8 1027.6 1027.6 5.2
22/04:30am 13.4 12.6 12.8 96 0.3 NNW 9 13 5 7 1027.6 1027.6 5.2
22/04:00am 13.2 11.9 12.6 96 0.3 WNW 11 13 6 7 1027.8 1027.8 5.2
22/03:30am 13.4 11.5 12.9 97 0.3 NNW 15 19 8 10 1028.0 1028.0 5.2
22/03:00am 13.5 12.3 12.9 96 0.3 N 11 13 6 7 1028.1 1028.1 5.2
22/02:30am 13.7 13.9 13.1 96 0.3 W 4 9 2 5 1028.3 1028.3 5.2
22/02:00am 13.6 12.1 13.0 96 0.3 WNW 13 17 7 9 1028.6 1028.6 5.2
22/01:30am 13.9 11.7 13.3 96 0.3 NNW 17 19 9 10 1029.0 1029.0 5.2
22/01:00am 14.0 12.5 13.1 94 0.5 NNW 13 15 7 8 1029.1 1029.1 5.2
22/12:30am 14.6 14.0 13.6 94 0.6 NNW 9 13 5 7 1029.1 1029.1 5.2
22/12:00am 14.7 13.8 13.7 94 0.6 NW 11 15 6 8 1029.2 1029.2 5.2
 
Date/Time
EST
Temp
°C
App
Temp
°C
Dew
Point
°C
Rel
Hum
%
Delta-T
°C
Wind Press
QNH
hPa
Press
MSL
hPa
Rain since
9am
mm
Dir  Spd
km/h
Gust
km/h
Spd
kts
Gust
kts
21/11:30pm 14.8 13.9 13.8 94 0.6 W 11 15 6 8 1029.3 1029.3 5.2
21/11:00pm 15.0 14.9 14.0 94 0.6 NNW 7 15 4 8 1029.4 1029.4 5.2
21/10:30pm 15.2 14.8 14.1 93 0.6 WSW 9 15 5 8 1029.4 1029.4 5.2
21/10:00pm 15.5 14.8 14.4 93 0.6 N 11 15 6 8 1029.7 1029.7 5.2

Other formats

Comma delimited format used in spreadsheet applications
http://www.bom.gov.au/fwo/IDN60801/IDN60801.94767.axf

JavaScript Object Notation format (JSON) in row-major order
http://www.bom.gov.au/fwo/IDN60801/IDN60801.94767.json

Data quality

Most of these data are generated automatically and are frequently updated. Quality checks on data are not normally performed. It is possible for incorrect values to appear. Refer to information at About Latest Weather Observations and please check the disclaimer before using these data.